createdAt,value
2023-01-18T00:02:05.832Z,8.48
2023-01-18T00:05:08.839Z,9.75
2023-01-18T00:08:12.417Z,9.85
2023-01-18T00:11:16.950Z,10.85
2023-01-18T00:14:19.317Z,9.75
2023-01-18T00:17:23.038Z,9.70
2023-01-18T00:20:26.545Z,9.02
2023-01-18T00:23:29.187Z,9.77
2023-01-18T00:26:31.398Z,10.30
2023-01-18T00:29:33.689Z,10.13
2023-01-18T00:32:37.608Z,9.73
2023-01-18T00:35:39.949Z,10.85
2023-01-18T00:38:42.255Z,10.48
2023-01-18T00:42:04.440Z,11.63
2023-01-18T00:48:11.487Z,10.20
2023-01-18T00:51:15.896Z,9.45
2023-01-18T00:54:18.607Z,10.73
2023-01-18T00:57:20.912Z,11.50
2023-01-18T01:00:24.451Z,10.82
2023-01-18T01:03:28.153Z,10.95
2023-01-18T01:06:45.632Z,9.45
2023-01-18T01:09:48.307Z,10.75
2023-01-18T01:13:09.310Z,9.48
2023-01-18T01:16:31.876Z,9.77
2023-01-18T01:19:54.179Z,10.45
2023-01-18T01:23:14.917Z,10.40
2023-01-18T01:26:17.208Z,9.50
2023-01-18T01:29:19.664Z,10.05
2023-01-18T01:32:21.951Z,10.23
2023-01-18T01:35:25.579Z,9.57
2023-01-18T01:38:27.919Z,10.50
2023-01-18T01:41:31.613Z,10.35
2023-01-18T01:44:44.138Z,10.70
2023-01-18T01:47:46.776Z,10.82
2023-01-18T01:50:50.359Z,10.13
2023-01-18T01:53:52.796Z,10.15
2023-01-18T01:56:59.248Z,10.80
2023-01-18T02:00:04.450Z,11.13
2023-01-18T02:03:19.085Z,10.45
2023-01-18T02:06:31.362Z,11.00
2023-01-18T02:09:33.753Z,11.18
2023-01-18T02:12:36.834Z,11.32
2023-01-18T02:15:46.099Z,10.25
2023-01-18T02:18:54.508Z,10.18
2023-01-18T02:22:00.178Z,13.63
2023-01-18T02:25:16.805Z,12.52
2023-01-18T02:28:22.544Z,11.60
2023-01-18T02:31:27.168Z,11.23
2023-01-18T02:34:35.896Z,10.95
2023-01-18T02:37:45.049Z,10.77
2023-01-18T02:40:57.996Z,11.05
2023-01-18T02:44:19.982Z,11.63
2023-01-18T02:47:22.687Z,12.00
2023-01-18T02:50:27.161Z,12.05
2023-01-18T02:53:30.125Z,10.93
2023-01-18T02:56:35.382Z,11.18
2023-01-18T02:59:41.547Z,11.50
2023-01-18T03:02:44.255Z,10.45
2023-01-18T03:05:47.452Z,10.70
2023-01-18T03:08:52.575Z,10.13
2023-01-18T03:11:58.821Z,10.32
2023-01-18T03:15:05.980Z,9.90
2023-01-18T03:18:12.020Z,9.25
2023-01-18T03:21:14.415Z,10.75
2023-01-18T03:24:17.091Z,11.05
2023-01-18T03:27:38.107Z,9.20
2023-01-18T03:31:01.132Z,9.98
2023-01-18T03:34:05.871Z,9.10
2023-01-18T03:37:11.302Z,9.10
2023-01-18T03:40:15.723Z,10.35
2023-01-18T03:43:19.697Z,9.50
2023-01-18T03:46:24.088Z,9.23
2023-01-18T03:49:27.466Z,9.15
2023-01-18T03:52:37.656Z,9.80
2023-01-18T03:55:43.148Z,9.93
2023-01-18T03:58:46.142Z,8.77
2023-01-18T04:01:49.886Z,10.32
2023-01-18T04:04:57.309Z,9.75
2023-01-18T04:07:59.766Z,9.45
2023-01-18T04:11:02.012Z,8.88
2023-01-18T04:14:04.234Z,10.30
2023-01-18T04:17:07.886Z,9.48
2023-01-18T04:20:10.995Z,9.45
2023-01-18T04:23:13.246Z,9.60
2023-01-18T04:26:16.792Z,9.32
2023-01-18T04:29:19.017Z,9.52
2023-01-18T04:32:22.651Z,8.50
2023-01-18T04:35:24.846Z,9.50
2023-01-18T04:38:28.306Z,8.73
2023-01-18T04:41:30.575Z,10.13
2023-01-18T04:44:32.818Z,9.32
2023-01-18T04:47:36.743Z,9.57
2023-01-18T04:50:39.422Z,8.65
2023-01-18T04:53:41.970Z,9.18
2023-01-18T04:56:44.252Z,9.10
2023-01-18T04:59:46.570Z,9.75
2023-01-18T05:02:50.275Z,8.60
2023-01-18T05:05:54.083Z,7.80
2023-01-18T05:08:56.357Z,9.35
2023-01-18T05:11:58.585Z,8.45
2023-01-18T05:15:00.947Z,7.80
2023-01-18T05:18:05.450Z,8.90
2023-01-18T05:21:07.712Z,7.60
2023-01-18T05:24:10.135Z,8.38
2023-01-18T05:27:13.398Z,7.70
2023-01-18T05:30:16.221Z,8.15
2023-01-18T05:33:20.539Z,8.15
2023-01-18T05:36:22.799Z,8.60
2023-01-18T05:39:25.192Z,8.27
2023-01-18T05:42:27.657Z,8.32
2023-01-18T05:45:30.144Z,7.50
2023-01-18T05:48:34.077Z,8.70
2023-01-18T05:51:36.383Z,8.07
2023-01-18T05:54:38.641Z,8.55
2023-01-18T05:57:41.013Z,8.80
2023-01-18T06:00:43.222Z,8.25
2023-01-18T06:03:46.984Z,7.90
2023-01-18T06:06:53.759Z,8.68
2023-01-18T06:09:55.956Z,8.00
2023-01-18T06:12:58.527Z,7.93
2023-01-18T06:16:01.446Z,8.05
2023-01-18T06:19:05.754Z,8.07
2023-01-18T06:22:08.078Z,9.02
2023-01-18T06:25:10.490Z,7.90
2023-01-18T06:28:12.756Z,9.00
2023-01-18T06:31:15.035Z,9.07
2023-01-18T06:34:18.606Z,9.70
2023-01-18T06:37:20.898Z,8.32
2023-01-18T06:40:23.376Z,9.25
2023-01-18T06:43:25.606Z,9.77
2023-01-18T06:46:28.582Z,9.80
2023-01-18T06:49:32.243Z,9.35
2023-01-18T06:52:34.523Z,9.68
2023-01-18T06:55:36.812Z,10.18
2023-01-18T06:58:39.450Z,10.43
2023-01-18T07:01:41.842Z,11.52
2023-01-18T07:04:45.616Z,10.40
2023-01-18T07:07:47.872Z,11.25
2023-01-18T07:10:52.564Z,11.02
2023-01-18T07:13:54.932Z,10.88
2023-01-18T07:16:57.212Z,10.70
2023-01-18T07:20:00.879Z,10.95
2023-01-18T07:23:04.937Z,10.88
2023-01-18T07:26:09.291Z,11.07
2023-01-18T07:29:11.621Z,11.55
2023-01-18T07:32:13.933Z,12.02
2023-01-18T07:35:20.041Z,12.18
2023-01-18T07:38:22.644Z,12.75
2023-01-18T07:41:26.193Z,11.65
2023-01-18T07:44:29.765Z,10.98
2023-01-18T07:47:32.053Z,11.30
2023-01-18T07:50:35.729Z,10.98
2023-01-18T07:53:38.994Z,10.95
2023-01-18T07:56:41.341Z,13.13
2023-01-18T07:59:43.724Z,13.82
2023-01-18T08:02:50.458Z,14.07
2023-01-18T08:05:54.106Z,13.68
2023-01-18T08:08:57.765Z,13.27
2023-01-18T08:12:00.378Z,14.07
2023-01-18T08:15:02.749Z,13.07
2023-01-18T08:18:06.197Z,13.10
2023-01-18T08:21:11.712Z,14.32
2023-01-18T08:24:14.127Z,13.63
2023-01-18T08:27:16.686Z,13.27
2023-01-18T08:30:20.060Z,14.82
2023-01-18T08:33:22.323Z,13.68
2023-01-18T08:36:26.450Z,13.93
2023-01-18T08:39:29.852Z,13.32
2023-01-18T08:42:32.668Z,12.55
2023-01-18T08:45:35.080Z,13.35
2023-01-18T08:48:37.353Z,12.93
2023-01-18T08:51:40.971Z,12.43
2023-01-18T08:54:43.327Z,13.32
2023-01-18T08:57:45.677Z,11.73
2023-01-18T09:00:50.644Z,12.73
2023-01-18T09:03:54.930Z,11.93
2023-01-18T09:06:58.657Z,12.25
2023-01-18T09:10:00.949Z,12.23
2023-01-18T09:13:03.530Z,11.57
2023-01-18T09:16:09.955Z,11.75
2023-01-18T09:19:12.485Z,11.13
2023-01-18T09:22:16.876Z,12.65
2023-01-18T09:25:20.741Z,10.80
2023-01-18T09:28:23.067Z,11.40
2023-01-18T09:31:26.808Z,11.57
2023-01-18T09:34:29.145Z,12.77
2023-01-18T09:37:32.807Z,12.43
2023-01-18T09:40:42.151Z,11.02
2023-01-18T09:43:49.064Z,11.98
2023-01-18T09:46:54.570Z,12.38
2023-01-18T09:49:58.344Z,11.38
2023-01-18T09:53:09.709Z,10.38
2023-01-18T09:56:16.954Z,11.50
2023-01-18T09:59:23.379Z,11.30
2023-01-18T10:02:30.922Z,10.68
2023-01-18T10:05:36.100Z,10.93
2023-01-18T10:08:49.937Z,11.95
2023-01-18T10:11:57.014Z,11.77
2023-01-18T10:15:02.479Z,11.50
2023-01-18T10:18:04.819Z,12.05
2023-01-18T10:21:07.801Z,12.73
2023-01-18T10:24:29.237Z,11.43
2023-01-18T10:27:42.244Z,13.85
2023-01-18T10:30:55.655Z,13.45
2023-01-18T10:33:59.985Z,12.50
2023-01-18T10:37:07.013Z,11.90
2023-01-18T10:40:13.448Z,13.27
2023-01-18T10:43:17.321Z,12.77
2023-01-18T10:46:20.000Z,13.70
2023-01-18T10:49:36.879Z,15.40
2023-01-18T10:52:39.224Z,13.00
2023-01-18T10:55:52.792Z,13.32
2023-01-18T10:58:58.008Z,12.88
2023-01-18T11:02:00.834Z,12.65
2023-01-18T11:05:19.602Z,12.30
2023-01-18T11:08:23.592Z,12.40
2023-01-18T11:11:49.889Z,11.30
2023-01-18T11:14:52.153Z,12.38
2023-01-18T11:18:10.154Z,12.25
2023-01-18T11:21:14.448Z,10.90
2023-01-18T11:24:18.091Z,11.43
2023-01-18T11:27:23.801Z,12.30
2023-01-18T11:30:27.196Z,10.75
2023-01-18T11:33:30.900Z,10.25
2023-01-18T11:36:36.236Z,10.55
2023-01-18T11:39:38.515Z,9.90
2023-01-18T11:42:42.143Z,10.65
2023-01-18T11:45:49.002Z,9.80
2023-01-18T11:48:54.862Z,9.23
2023-01-18T11:52:01.874Z,8.75
2023-01-18T11:55:08.094Z,8.40
2023-01-18T11:58:20.664Z,7.75
2023-01-18T12:01:43.508Z,9.18
2023-01-18T12:05:28.177Z,8.70
2023-01-18T12:08:43.233Z,9.00
2023-01-18T12:11:51.852Z,7.50
2023-01-18T12:15:06.792Z,7.70
2023-01-18T12:18:36.153Z,8.32
2023-01-18T12:21:47.933Z,6.55
2023-01-18T12:25:00.692Z,6.22
2023-01-18T12:28:11.882Z,5.68
2023-01-18T12:31:22.002Z,7.00
2023-01-18T12:34:27.487Z,6.13
2023-01-18T12:37:38.637Z,5.82
2023-01-18T12:41:05.706Z,6.37
2023-01-18T12:44:31.315Z,5.75
2023-01-18T12:47:39.454Z,5.88
2023-01-18T12:50:43.592Z,6.22
2023-01-18T12:53:50.039Z,6.40
2023-01-18T12:56:55.057Z,6.68
2023-01-18T13:00:01.249Z,6.30
2023-01-18T13:03:10.409Z,6.28
2023-01-18T13:06:13.185Z,7.40
2023-01-18T13:09:17.810Z,5.55
2023-01-18T13:12:20.250Z,5.63
2023-01-18T13:15:30.224Z,6.03
2023-01-18T13:18:39.786Z,5.15
2023-01-18T13:21:48.695Z,6.32
2023-01-18T13:25:18.496Z,5.10
2023-01-18T13:28:23.395Z,4.88
2023-01-18T13:31:30.353Z,4.75
2023-01-18T13:34:47.712Z,4.22
2023-01-18T13:37:56.288Z,3.45
2023-01-18T13:41:01.118Z,4.05
2023-01-18T13:44:12.874Z,4.20
2023-01-18T13:47:50.778Z,3.53
2023-01-18T13:50:54.533Z,3.55
2023-01-18T13:53:56.812Z,3.65
2023-01-18T13:57:16.763Z,4.00
2023-01-18T14:00:24.506Z,4.10
2023-01-18T14:03:28.230Z,3.97
2023-01-18T14:06:34.688Z,3.83
2023-01-18T14:09:39.618Z,3.55
2023-01-18T14:12:50.167Z,3.80
2023-01-18T14:15:53.661Z,4.03
2023-01-18T14:18:58.900Z,4.03
2023-01-18T14:22:12.854Z,4.10
2023-01-18T14:25:34.685Z,3.72
2023-01-18T14:28:41.104Z,3.40
2023-01-18T14:31:47.009Z,3.70
2023-01-18T14:34:58.045Z,4.00
2023-01-18T14:38:17.955Z,3.88
2023-01-18T14:41:21.140Z,5.93
2023-01-18T14:44:26.117Z,4.55
2023-01-18T14:47:30.129Z,4.90
2023-01-18T14:50:34.343Z,4.57
2023-01-18T14:53:47.672Z,4.47
2023-01-18T14:56:50.647Z,5.78
2023-01-18T14:59:54.504Z,4.43
2023-01-18T15:02:57.017Z,4.18
2023-01-18T15:06:02.242Z,3.75
2023-01-18T15:09:07.151Z,4.20
2023-01-18T15:12:10.958Z,5.60
2023-01-18T15:15:20.367Z,4.60
2023-01-18T15:18:25.419Z,4.38
2023-01-18T15:21:29.049Z,4.35
2023-01-18T15:24:37.461Z,4.13
2023-01-18T15:27:41.033Z,4.53
2023-01-18T15:30:48.464Z,4.13
2023-01-18T15:33:50.885Z,4.35
2023-01-18T15:36:53.547Z,3.63
2023-01-18T15:40:00.762Z,5.45
2023-01-18T15:43:06.260Z,4.72
2023-01-18T15:46:10.712Z,5.40
2023-01-18T15:49:13.720Z,5.28
2023-01-18T15:52:16.561Z,4.57
2023-01-18T15:55:23.441Z,4.97
2023-01-18T15:58:31.176Z,4.63
2023-01-18T16:01:36.553Z,4.40
2023-01-18T16:04:40.434Z,4.30
2023-01-18T16:07:42.778Z,4.38
2023-01-18T16:10:51.531Z,4.55
2023-01-18T16:13:56.684Z,5.35
2023-01-18T16:17:02.986Z,4.57
2023-01-18T16:20:16.363Z,5.78
2023-01-18T16:23:19.771Z,6.60
2023-01-18T16:26:27.445Z,5.32
2023-01-18T16:29:30.017Z,4.53
2023-01-18T16:32:34.206Z,4.38
2023-01-18T16:35:39.722Z,4.65
2023-01-18T16:38:42.157Z,4.57
2023-01-18T16:41:51.367Z,3.95
2023-01-18T16:44:54.759Z,3.90
2023-01-18T16:47:57.512Z,4.13
2023-01-18T16:51:01.312Z,4.55
2023-01-18T16:54:03.760Z,3.80
2023-01-18T16:57:07.438Z,3.70
2023-01-18T17:00:16.717Z,4.20
2023-01-18T17:03:19.007Z,5.07
2023-01-18T17:06:22.472Z,3.35
2023-01-18T17:09:32.341Z,3.67
2023-01-18T17:12:36.035Z,4.22
2023-01-18T17:15:41.671Z,3.53
2023-01-18T17:18:44.425Z,3.20
2023-01-18T17:21:47.912Z,3.28
2023-01-18T17:24:53.304Z,3.50
2023-01-18T17:27:57.934Z,3.42
2023-01-18T17:31:00.262Z,3.25
2023-01-18T17:34:02.984Z,5.18
2023-01-18T17:37:05.213Z,4.00
2023-01-18T17:40:17.470Z,3.63
2023-01-18T17:43:33.712Z,2.97
2023-01-18T17:46:36.980Z,3.40
2023-01-18T17:49:39.452Z,4.18
2023-01-18T17:52:42.224Z,2.83
2023-01-18T17:55:44.518Z,3.55
2023-01-18T17:58:48.801Z,3.33
2023-01-18T18:01:51.142Z,3.53
2023-01-18T18:04:53.407Z,3.40
2023-01-18T18:07:55.694Z,3.67
2023-01-18T18:10:59.960Z,4.63
2023-01-18T18:14:03.824Z,3.65
2023-01-18T18:17:07.465Z,3.75
2023-01-18T18:20:11.900Z,3.92
2023-01-18T18:23:14.316Z,3.30
2023-01-18T18:26:16.823Z,4.00
2023-01-18T18:29:20.752Z,3.75
2023-01-18T18:32:23.254Z,3.85
2023-01-18T18:35:26.677Z,4.82
2023-01-18T18:38:31.661Z,4.65
2023-01-18T18:41:34.028Z,4.85
2023-01-18T18:44:38.244Z,4.65
2023-01-18T18:47:40.612Z,5.13
2023-01-18T18:50:42.975Z,5.50
2023-01-18T18:53:45.304Z,6.10
2023-01-18T18:56:47.827Z,6.38
2023-01-18T18:59:51.799Z,5.82
2023-01-18T19:02:58.150Z,7.22
2023-01-18T19:06:00.573Z,6.93
2023-01-18T19:09:05.397Z,6.28
2023-01-18T19:12:08.591Z,7.13
2023-01-18T19:15:12.913Z,6.88
2023-01-18T19:18:15.642Z,5.93
2023-01-18T19:21:18.421Z,7.20
2023-01-18T19:24:20.670Z,6.82
2023-01-18T19:27:24.591Z,6.53
2023-01-18T19:30:30.319Z,6.85
2023-01-18T19:33:33.175Z,6.20
2023-01-18T19:36:35.638Z,6.32
2023-01-18T19:39:38.214Z,6.18
2023-01-18T19:42:40.780Z,6.25
2023-01-18T19:45:44.483Z,6.13
2023-01-18T19:48:46.981Z,6.25
2023-01-18T19:51:49.700Z,6.40
2023-01-18T19:54:52.998Z,6.25
2023-01-18T19:57:56.246Z,6.18
2023-01-18T20:01:00.373Z,6.80
2023-01-18T20:04:02.780Z,5.95
2023-01-18T20:07:05.070Z,6.47
2023-01-18T20:10:08.107Z,6.20
2023-01-18T20:13:10.580Z,5.97
2023-01-18T20:16:14.395Z,5.45
2023-01-18T20:19:17.629Z,5.82
2023-01-18T20:22:20.190Z,5.00
2023-01-18T20:25:22.595Z,6.68
2023-01-18T20:28:25.142Z,6.82
2023-01-18T20:31:29.590Z,6.32
2023-01-18T20:34:33.751Z,7.13
2023-01-18T20:37:36.059Z,5.40
2023-01-18T20:40:38.537Z,6.65
2023-01-18T20:43:41.184Z,6.10
2023-01-18T20:46:46.378Z,5.38
2023-01-18T20:49:49.773Z,5.75
2023-01-18T20:52:52.692Z,5.80
2023-01-18T20:55:55.336Z,6.20
2023-01-18T20:58:58.318Z,6.78
2023-01-18T21:02:03.164Z,5.90
2023-01-18T21:05:06.232Z,5.57
2023-01-18T21:08:08.603Z,6.10
2023-01-18T21:11:12.302Z,4.93
2023-01-18T21:14:16.005Z,4.60
2023-01-18T21:17:21.090Z,4.28
2023-01-18T21:20:23.374Z,4.38
2023-01-18T21:23:27.274Z,5.45
2023-01-18T21:26:29.568Z,5.63
2023-01-18T21:29:31.890Z,4.53
2023-01-18T21:32:35.626Z,5.05
2023-01-18T21:35:38.010Z,4.65
2023-01-18T21:38:40.566Z,5.88
2023-01-18T21:42:01.621Z,4.85
2023-01-18T21:45:27.030Z,5.35
2023-01-18T21:48:31.711Z,5.13
2023-01-18T21:51:54.954Z,5.75
2023-01-18T21:54:57.290Z,4.22
2023-01-18T21:58:18.308Z,4.97
2023-01-18T22:01:21.917Z,4.80
2023-01-18T22:04:44.221Z,5.18
2023-01-18T22:07:46.430Z,5.38
2023-01-18T22:10:48.721Z,5.22
2023-01-18T22:13:50.981Z,5.82
2023-01-18T22:16:53.635Z,5.57
2023-01-18T22:19:57.626Z,5.38
2023-01-18T22:23:00.270Z,5.80
2023-01-18T22:26:02.593Z,6.43
2023-01-18T22:29:05.014Z,6.13
2023-01-18T22:32:07.320Z,8.88
2023-01-18T22:35:11.016Z,5.22
2023-01-18T22:38:13.503Z,5.70
2023-01-18T22:41:18.762Z,5.53
2023-01-18T22:44:21.159Z,5.68
2023-01-18T22:47:23.548Z,4.93
2023-01-18T22:50:27.252Z,4.93
2023-01-18T22:53:31.702Z,5.90
2023-01-18T22:56:34.029Z,4.93
2023-01-18T22:59:36.451Z,5.03
2023-01-18T23:02:38.699Z,5.15
2023-01-18T23:05:42.374Z,4.97
2023-01-18T23:08:45.793Z,5.20
2023-01-18T23:11:48.986Z,3.67
2023-01-18T23:15:09.861Z,3.88
2023-01-18T23:18:12.521Z,5.30
2023-01-18T23:21:16.177Z,5.00
2023-01-18T23:24:18.921Z,4.85
2023-01-18T23:27:21.225Z,5.97
2023-01-18T23:30:23.559Z,5.10
2023-01-18T23:33:25.914Z,4.32
2023-01-18T23:36:29.478Z,4.43
2023-01-18T23:39:50.327Z,5.03
2023-01-18T23:43:11.957Z,4.75
2023-01-18T23:46:33.058Z,5.13
2023-01-18T23:49:54.096Z,4.40
2023-01-18T23:53:18.308Z,4.15
2023-01-18T23:56:20.664Z,5.03
2023-01-18T23:59:22.971Z,5.65
